sensor_id;sensor_type;location;lat;lon;timestamp;P1;durP1;ratioP1;P2;durP2;ratioP2
25069;SDS011;13064;48.162;11.536;2022-10-31T00:01:12;19.50;;;9.10;;
25069;SDS011;13064;48.162;11.536;2022-10-31T00:03:40;19.20;;;9.23;;
25069;SDS011;13064;48.162;11.536;2022-10-31T00:06:08;18.85;;;9.30;;
25069;SDS011;13064;48.162;11.536;2022-10-31T00:08:35;23.67;;;9.38;;
25069;SDS011;13064;48.162;11.536;2022-10-31T00:11:03;18.13;;;8.50;;
25069;SDS011;13064;48.162;11.536;2022-10-31T00:13:31;19.35;;;8.85;;
25069;SDS011;13064;48.162;11.536;2022-10-31T00:15:58;19.42;;;9.20;;
25069;SDS011;13064;48.162;11.536;2022-10-31T00:18:26;16.60;;;8.18;;
25069;SDS011;13064;48.162;11.536;2022-10-31T00:21:03;23.63;;;8.40;;
25069;SDS011;13064;48.162;11.536;2022-10-31T00:23:30;18.83;;;8.10;;
25069;SDS011;13064;48.162;11.536;2022-10-31T00:26:01;19.20;;;7.93;;
25069;SDS011;13064;48.162;11.536;2022-10-31T00:28:29;21.25;;;9.55;;
25069;SDS011;13064;48.162;11.536;2022-10-31T00:31:04;17.20;;;8.85;;
25069;SDS011;13064;48.162;11.536;2022-10-31T00:33:33;19.65;;;8.10;;
25069;SDS011;13064;48.162;11.536;2022-10-31T00:36:01;19.00;;;8.40;;
25069;SDS011;13064;48.162;11.536;2022-10-31T00:38:28;14.63;;;7.82;;
25069;SDS011;13064;48.162;11.536;2022-10-31T00:40:56;22.98;;;9.20;;
25069;SDS011;13064;48.162;11.536;2022-10-31T00:43:24;23.83;;;8.55;;
25069;SDS011;13064;48.162;11.536;2022-10-31T00:45:51;20.13;;;8.80;;
25069;SDS011;13064;48.162;11.536;2022-10-31T00:48:19;17.98;;;8.25;;
25069;SDS011;13064;48.162;11.536;2022-10-31T00:50:48;20.58;;;8.02;;
25069;SDS011;13064;48.162;11.536;2022-10-31T00:53:15;18.73;;;8.10;;
25069;SDS011;13064;48.162;11.536;2022-10-31T00:55:43;15.23;;;7.30;;
25069;SDS011;13064;48.162;11.536;2022-10-31T00:58:11;20.98;;;8.18;;
25069;SDS011;13064;48.162;11.536;2022-10-31T01:00:44;18.02;;;8.38;;
25069;SDS011;13064;48.162;11.536;2022-10-31T01:03:16;21.42;;;7.95;;
25069;SDS011;13064;48.162;11.536;2022-10-31T01:05:44;17.17;;;7.95;;
25069;SDS011;13064;48.162;11.536;2022-10-31T01:08:11;17.13;;;7.63;;
25069;SDS011;13064;48.162;11.536;2022-10-31T01:10:39;15.02;;;7.35;;
25069;SDS011;13064;48.162;11.536;2022-10-31T01:13:07;19.50;;;7.03;;
25069;SDS011;13064;48.162;11.536;2022-10-31T01:15:35;13.40;;;7.03;;
25069;SDS011;13064;48.162;11.536;2022-10-31T01:18:06;17.92;;;7.70;;
25069;SDS011;13064;48.162;11.536;2022-10-31T01:20:33;16.73;;;7.40;;
25069;SDS011;13064;48.162;11.536;2022-10-31T01:23:01;14.73;;;7.15;;
25069;SDS011;13064;48.162;11.536;2022-10-31T01:25:28;17.90;;;7.43;;
25069;SDS011;13064;48.162;11.536;2022-10-31T01:27:56;15.25;;;7.63;;
25069;SDS011;13064;48.162;11.536;2022-10-31T01:30:25;16.67;;;7.32;;
25069;SDS011;13064;48.162;11.536;2022-10-31T01:32:53;14.02;;;7.15;;
25069;SDS011;13064;48.162;11.536;2022-10-31T01:35:20;17.23;;;6.78;;
25069;SDS011;13064;48.162;11.536;2022-10-31T01:37:48;13.85;;;6.18;;
25069;SDS011;13064;48.162;11.536;2022-10-31T01:40:15;15.65;;;6.57;;
25069;SDS011;13064;48.162;11.536;2022-10-31T01:42:43;17.02;;;6.70;;
25069;SDS011;13064;48.162;11.536;2022-10-31T01:45:10;16.38;;;7.60;;
25069;SDS011;13064;48.162;11.536;2022-10-31T01:47:41;16.30;;;7.13;;
25069;SDS011;13064;48.162;11.536;2022-10-31T01:50:11;14.15;;;6.78;;
25069;SDS011;13064;48.162;11.536;2022-10-31T01:52:43;13.40;;;6.05;;
25069;SDS011;13064;48.162;11.536;2022-10-31T01:57:40;16.45;;;6.47;;
25069;SDS011;13064;48.162;11.536;2022-10-31T02:00:10;18.45;;;6.10;;
25069;SDS011;13064;48.162;11.536;2022-10-31T02:02:41;19.08;;;6.43;;
25069;SDS011;13064;48.162;11.536;2022-10-31T02:05:10;14.05;;;6.10;;
25069;SDS011;13064;48.162;11.536;2022-10-31T02:07:42;12.43;;;5.93;;
25069;SDS011;13064;48.162;11.536;2022-10-31T02:10:10;12.52;;;5.50;;
25069;SDS011;13064;48.162;11.536;2022-10-31T02:12:38;12.95;;;6.03;;
25069;SDS011;13064;48.162;11.536;2022-10-31T02:15:06;14.38;;;5.28;;
25069;SDS011;13064;48.162;11.536;2022-10-31T02:17:34;11.88;;;5.55;;
25069;SDS011;13064;48.162;11.536;2022-10-31T02:27:56;12.18;;;5.25;;
25069;SDS011;13064;48.162;11.536;2022-10-31T02:30:41;18.23;;;5.38;;
25069;SDS011;13064;48.162;11.536;2022-10-31T02:33:19;14.98;;;5.38;;
25069;SDS011;13064;48.162;11.536;2022-10-31T02:35:54;14.25;;;5.40;;
25069;SDS011;13064;48.162;11.536;2022-10-31T02:38:29;13.68;;;5.00;;
25069;SDS011;13064;48.162;11.536;2022-10-31T02:46:52;12.98;;;4.65;;
25069;SDS011;13064;48.162;11.536;2022-10-31T02:49:27;11.50;;;4.82;;
25069;SDS011;13064;48.162;11.536;2022-10-31T02:51:56;15.25;;;5.55;;
25069;SDS011;13064;48.162;11.536;2022-10-31T02:54:24;8.93;;;5.07;;
25069;SDS011;13064;48.162;11.536;2022-10-31T02:57:00;11.90;;;4.97;;
25069;SDS011;13064;48.162;11.536;2022-10-31T02:59:30;11.07;;;5.15;;
25069;SDS011;13064;48.162;11.536;2022-10-31T03:10:02;10.48;;;4.70;;
25069;SDS011;13064;48.162;11.536;2022-10-31T03:12:38;17.05;;;4.65;;
25069;SDS011;13064;48.162;11.536;2022-10-31T03:15:21;12.23;;;4.57;;
25069;SDS011;13064;48.162;11.536;2022-10-31T03:17:55;9.82;;;4.63;;
25069;SDS011;13064;48.162;11.536;2022-10-31T03:20:32;11.15;;;4.75;;
25069;SDS011;13064;48.162;11.536;2022-10-31T03:23:02;9.27;;;4.32;;
25069;SDS011;13064;48.162;11.536;2022-10-31T03:25:30;14.43;;;5.25;;
25069;SDS011;13064;48.162;11.536;2022-10-31T03:27:59;12.32;;;5.32;;
25069;SDS011;13064;48.162;11.536;2022-10-31T03:30:29;12.30;;;4.90;;
25069;SDS011;13064;48.162;11.536;2022-10-31T03:32:58;10.25;;;4.80;;
25069;SDS011;13064;48.162;11.536;2022-10-31T03:35:29;19.17;;;5.50;;
25069;SDS011;13064;48.162;11.536;2022-10-31T03:37:58;11.82;;;4.78;;
25069;SDS011;13064;48.162;11.536;2022-10-31T03:40:33;13.02;;;5.05;;
25069;SDS011;13064;48.162;11.536;2022-10-31T03:43:04;6.30;;;4.20;;
25069;SDS011;13064;48.162;11.536;2022-10-31T03:45:35;12.85;;;5.18;;
25069;SDS011;13064;48.162;11.536;2022-10-31T03:48:05;9.63;;;4.85;;
25069;SDS011;13064;48.162;11.536;2022-10-31T03:50:38;9.43;;;4.57;;
25069;SDS011;13064;48.162;11.536;2022-10-31T03:53:09;12.50;;;5.10;;
25069;SDS011;13064;48.162;11.536;2022-10-31T03:55:40;10.48;;;4.53;;
25069;SDS011;13064;48.162;11.536;2022-10-31T03:58:11;14.30;;;5.00;;
25069;SDS011;13064;48.162;11.536;2022-10-31T04:00:41;6.82;;;4.10;;
25069;SDS011;13064;48.162;11.536;2022-10-31T04:03:12;13.65;;;4.80;;
25069;SDS011;13064;48.162;11.536;2022-10-31T04:05:44;11.55;;;4.68;;
25069;SDS011;13064;48.162;11.536;2022-10-31T04:08:15;18.45;;;5.60;;
25069;SDS011;13064;48.162;11.536;2022-10-31T04:10:44;10.75;;;4.72;;
25069;SDS011;13064;48.162;11.536;2022-10-31T04:13:16;10.10;;;5.10;;
25069;SDS011;13064;48.162;11.536;2022-10-31T04:15:58;12.90;;;5.03;;
25069;SDS011;13064;48.162;11.536;2022-10-31T04:18:26;10.55;;;4.68;;
25069;SDS011;13064;48.162;11.536;2022-10-31T04:21:00;9.60;;;4.95;;
25069;SDS011;13064;48.162;11.536;2022-10-31T04:23:28;14.98;;;4.90;;
25069;SDS011;13064;48.162;11.536;2022-10-31T04:25:57;8.85;;;4.63;;
25069;SDS011;13064;48.162;11.536;2022-10-31T04:28:25;10.50;;;4.90;;
25069;SDS011;13064;48.162;11.536;2022-10-31T04:30:52;10.40;;;4.60;;
25069;SDS011;13064;48.162;11.536;2022-10-31T04:33:21;8.68;;;4.68;;
25069;SDS011;13064;48.162;11.536;2022-10-31T04:35:49;9.82;;;4.40;;
25069;SDS011;13064;48.162;11.536;2022-10-31T04:38:17;16.50;;;5.40;;
25069;SDS011;13064;48.162;11.536;2022-10-31T04:40:45;10.98;;;4.53;;
25069;SDS011;13064;48.162;11.536;2022-10-31T04:43:31;9.95;;;4.60;;
25069;SDS011;13064;48.162;11.536;2022-10-31T04:46:00;10.43;;;4.75;;
25069;SDS011;13064;48.162;11.536;2022-10-31T04:48:28;6.75;;;4.30;;
25069;SDS011;13064;48.162;11.536;2022-10-31T04:50:59;10.80;;;5.00;;
25069;SDS011;13064;48.162;11.536;2022-10-31T04:53:27;7.68;;;4.78;;
25069;SDS011;13064;48.162;11.536;2022-10-31T04:56:13;9.82;;;4.78;;
25069;SDS011;13064;48.162;11.536;2022-10-31T04:58:44;9.52;;;4.43;;
25069;SDS011;13064;48.162;11.536;2022-10-31T05:01:12;13.23;;;5.13;;
25069;SDS011;13064;48.162;11.536;2022-10-31T05:03:39;15.25;;;4.78;;
25069;SDS011;13064;48.162;11.536;2022-10-31T05:06:07;14.45;;;4.57;;
25069;SDS011;13064;48.162;11.536;2022-10-31T05:08:39;7.53;;;4.07;;
25069;SDS011;13064;48.162;11.536;2022-10-31T05:11:07;14.95;;;5.20;;
25069;SDS011;13064;48.162;11.536;2022-10-31T05:13:35;13.65;;;4.70;;
25069;SDS011;13064;48.162;11.536;2022-10-31T05:16:28;16.60;;;4.75;;
25069;SDS011;13064;48.162;11.536;2022-10-31T05:19:28;9.07;;;4.32;;
25069;SDS011;13064;48.162;11.536;2022-10-31T05:22:22;11.20;;;4.22;;
25069;SDS011;13064;48.162;11.536;2022-10-31T05:24:49;12.93;;;5.25;;
25069;SDS011;13064;48.162;11.536;2022-10-31T05:27:17;10.82;;;4.75;;
25069;SDS011;13064;48.162;11.536;2022-10-31T05:29:45;12.82;;;4.90;;
25069;SDS011;13064;48.162;11.536;2022-10-31T05:32:13;10.85;;;4.90;;
25069;SDS011;13064;48.162;11.536;2022-10-31T05:35:19;14.73;;;5.18;;
25069;SDS011;13064;48.162;11.536;2022-10-31T05:38:13;13.32;;;4.70;;
25069;SDS011;13064;48.162;11.536;2022-10-31T05:40:41;12.18;;;4.38;;
25069;SDS011;13064;48.162;11.536;2022-10-31T05:43:09;11.60;;;4.63;;
25069;SDS011;13064;48.162;11.536;2022-10-31T05:45:37;8.25;;;4.70;;
25069;SDS011;13064;48.162;11.536;2022-10-31T05:48:09;10.43;;;4.75;;
25069;SDS011;13064;48.162;11.536;2022-10-31T05:50:56;11.73;;;5.22;;
25069;SDS011;13064;48.162;11.536;2022-10-31T05:53:24;13.30;;;4.72;;
25069;SDS011;13064;48.162;11.536;2022-10-31T05:55:52;12.07;;;5.15;;
25069;SDS011;13064;48.162;11.536;2022-10-31T05:58:21;11.50;;;4.68;;
25069;SDS011;13064;48.162;11.536;2022-10-31T06:01:09;11.00;;;4.95;;
25069;SDS011;13064;48.162;11.536;2022-10-31T06:03:37;9.85;;;4.72;;
25069;SDS011;13064;48.162;11.536;2022-10-31T06:06:07;12.48;;;4.50;;
25069;SDS011;13064;48.162;11.536;2022-10-31T06:08:37;12.48;;;4.80;;
25069;SDS011;13064;48.162;11.536;2022-10-31T06:11:10;15.70;;;4.90;;
25069;SDS011;13064;48.162;11.536;2022-10-31T06:13:57;11.07;;;4.80;;
25069;SDS011;13064;48.162;11.536;2022-10-31T06:16:32;10.32;;;4.65;;
25069;SDS011;13064;48.162;11.536;2022-10-31T06:19:18;13.52;;;4.85;;
25069;SDS011;13064;48.162;11.536;2022-10-31T06:21:46;11.30;;;4.78;;
25069;SDS011;13064;48.162;11.536;2022-10-31T06:24:13;13.38;;;4.82;;
25069;SDS011;13064;48.162;11.536;2022-10-31T06:26:53;12.60;;;5.15;;
25069;SDS011;13064;48.162;11.536;2022-10-31T06:29:21;13.00;;;4.50;;
25069;SDS011;13064;48.162;11.536;2022-10-31T06:32:15;12.43;;;5.57;;
25069;SDS011;13064;48.162;11.536;2022-10-31T06:34:44;12.27;;;5.47;;
25069;SDS011;13064;48.162;11.536;2022-10-31T06:37:15;11.60;;;5.45;;
25069;SDS011;13064;48.162;11.536;2022-10-31T06:39:46;14.93;;;5.13;;
25069;SDS011;13064;48.162;11.536;2022-10-31T06:42:16;12.07;;;5.50;;
25069;SDS011;13064;48.162;11.536;2022-10-31T06:44:44;12.80;;;5.05;;
25069;SDS011;13064;48.162;11.536;2022-10-31T06:47:30;13.32;;;4.72;;
25069;SDS011;13064;48.162;11.536;2022-10-31T06:50:10;12.88;;;5.45;;
25069;SDS011;13064;48.162;11.536;2022-10-31T06:52:38;13.27;;;5.45;;
25069;SDS011;13064;48.162;11.536;2022-10-31T06:55:05;12.93;;;5.88;;
25069;SDS011;13064;48.162;11.536;2022-10-31T06:57:33;11.75;;;5.25;;
25069;SDS011;13064;48.162;11.536;2022-10-31T07:00:02;12.80;;;5.05;;
25069;SDS011;13064;48.162;11.536;2022-10-31T07:02:42;16.50;;;5.65;;
25069;SDS011;13064;48.162;11.536;2022-10-31T07:05:10;8.85;;;4.95;;
25069;SDS011;13064;48.162;11.536;2022-10-31T07:07:38;8.85;;;4.75;;
25069;SDS011;13064;48.162;11.536;2022-10-31T07:10:06;12.40;;;4.90;;
25069;SDS011;13064;48.162;11.536;2022-10-31T07:12:44;12.85;;;5.65;;
25069;SDS011;13064;48.162;11.536;2022-10-31T07:15:12;9.77;;;5.15;;
25069;SDS011;13064;48.162;11.536;2022-10-31T07:17:40;8.52;;;5.40;;
25069;SDS011;13064;48.162;11.536;2022-10-31T07:20:08;12.43;;;4.60;;
25069;SDS011;13064;48.162;11.536;2022-10-31T07:22:36;13.65;;;5.15;;
25069;SDS011;13064;48.162;11.536;2022-10-31T07:25:07;14.85;;;5.38;;
25069;SDS011;13064;48.162;11.536;2022-10-31T07:28:12;14.05;;;5.50;;
25069;SDS011;13064;48.162;11.536;2022-10-31T07:30:48;15.82;;;5.65;;
25069;SDS011;13064;48.162;11.536;2022-10-31T07:33:19;16.85;;;6.07;;
25069;SDS011;13064;48.162;11.536;2022-10-31T07:36:10;16.20;;;4.65;;
25069;SDS011;13064;48.162;11.536;2022-10-31T07:38:41;12.68;;;6.10;;
25069;SDS011;13064;48.162;11.536;2022-10-31T07:41:09;11.80;;;5.47;;
25069;SDS011;13064;48.162;11.536;2022-10-31T07:43:41;15.32;;;6.40;;
25069;SDS011;13064;48.162;11.536;2022-10-31T07:46:17;14.90;;;5.47;;
25069;SDS011;13064;48.162;11.536;2022-10-31T07:49:03;13.93;;;5.10;;
25069;SDS011;13064;48.162;11.536;2022-10-31T07:52:01;16.25;;;5.25;;
25069;SDS011;13064;48.162;11.536;2022-10-31T07:55:07;14.20;;;5.68;;
25069;SDS011;13064;48.162;11.536;2022-10-31T07:57:36;22.33;;;6.15;;
25069;SDS011;13064;48.162;11.536;2022-10-31T08:00:04;15.57;;;5.65;;
25069;SDS011;13064;48.162;11.536;2022-10-31T08:02:40;17.25;;;5.90;;
25069;SDS011;13064;48.162;11.536;2022-10-31T08:05:29;16.48;;;6.65;;
25069;SDS011;13064;48.162;11.536;2022-10-31T08:08:16;14.50;;;5.28;;
25069;SDS011;13064;48.162;11.536;2022-10-31T08:10:46;14.82;;;5.88;;
25069;SDS011;13064;48.162;11.536;2022-10-31T08:13:14;22.02;;;7.38;;
25069;SDS011;13064;48.162;11.536;2022-10-31T08:15:45;16.20;;;6.20;;
25069;SDS011;13064;48.162;11.536;2022-10-31T08:18:17;15.85;;;6.85;;
25069;SDS011;13064;48.162;11.536;2022-10-31T08:20:47;16.27;;;7.65;;
25069;SDS011;13064;48.162;11.536;2022-10-31T08:23:15;20.90;;;7.13;;
25069;SDS011;13064;48.162;11.536;2022-10-31T08:25:43;22.88;;;8.80;;
25069;SDS011;13064;48.162;11.536;2022-10-31T08:28:13;16.33;;;8.00;;
25069;SDS011;13064;48.162;11.536;2022-10-31T08:30:43;18.60;;;8.10;;
25069;SDS011;13064;48.162;11.536;2022-10-31T08:33:47;20.13;;;8.23;;
25069;SDS011;13064;48.162;11.536;2022-10-31T08:36:17;15.85;;;7.13;;
25069;SDS011;13064;48.162;11.536;2022-10-31T08:38:50;20.23;;;7.80;;
25069;SDS011;13064;48.162;11.536;2022-10-31T08:41:26;17.75;;;7.95;;
25069;SDS011;13064;48.162;11.536;2022-10-31T08:43:54;21.00;;;7.80;;
25069;SDS011;13064;48.162;11.536;2022-10-31T08:46:22;18.08;;;6.90;;
25069;SDS011;13064;48.162;11.536;2022-10-31T08:48:49;15.65;;;7.85;;
25069;SDS011;13064;48.162;11.536;2022-10-31T08:51:18;19.13;;;7.45;;
25069;SDS011;13064;48.162;11.536;2022-10-31T08:53:49;23.60;;;8.18;;
25069;SDS011;13064;48.162;11.536;2022-10-31T08:56:37;22.38;;;8.68;;
25069;SDS011;13064;48.162;11.536;2022-10-31T08:59:18;17.25;;;8.50;;
25069;SDS011;13064;48.162;11.536;2022-10-31T09:02:08;19.63;;;8.80;;
25069;SDS011;13064;48.162;11.536;2022-10-31T09:04:36;17.10;;;8.55;;
25069;SDS011;13064;48.162;11.536;2022-10-31T09:07:04;23.95;;;8.45;;
25069;SDS011;13064;48.162;11.536;2022-10-31T09:09:47;18.25;;;7.35;;
25069;SDS011;13064;48.162;11.536;2022-10-31T09:12:17;18.98;;;7.88;;
25069;SDS011;13064;48.162;11.536;2022-10-31T09:15:04;17.63;;;7.13;;
25069;SDS011;13064;48.162;11.536;2022-10-31T09:17:47;16.05;;;7.78;;
25069;SDS011;13064;48.162;11.536;2022-10-31T09:20:22;21.10;;;7.47;;
25069;SDS011;13064;48.162;11.536;2022-10-31T09:23:25;17.45;;;6.90;;
25069;SDS011;13064;48.162;11.536;2022-10-31T09:25:47;18.15;;;6.80;;
25069;SDS011;13064;48.162;11.536;2022-10-31T09:28:35;19.50;;;7.55;;
25069;SDS011;13064;48.162;11.536;2022-10-31T09:31:07;14.75;;;6.57;;
25069;SDS011;13064;48.162;11.536;2022-10-31T09:34:04;16.70;;;6.32;;
25069;SDS011;13064;48.162;11.536;2022-10-31T09:36:34;21.30;;;6.82;;
25069;SDS011;13064;48.162;11.536;2022-10-31T09:39:04;14.05;;;5.25;;
25069;SDS011;13064;48.162;11.536;2022-10-31T09:44:18;14.20;;;5.47;;
25069;SDS011;13064;48.162;11.536;2022-10-31T09:47:00;18.08;;;5.90;;
25069;SDS011;13064;48.162;11.536;2022-10-31T09:52:44;12.65;;;5.07;;
25069;SDS011;13064;48.162;11.536;2022-10-31T09:54:53;14.52;;;4.82;;
25069;SDS011;13064;48.162;11.536;2022-10-31T09:57:24;18.23;;;4.53;;
25069;SDS011;13064;48.162;11.536;2022-10-31T09:59:53;10.35;;;5.00;;
25069;SDS011;13064;48.162;11.536;2022-10-31T10:04:54;12.15;;;4.22;;
25069;SDS011;13064;48.162;11.536;2022-10-31T10:18:41;16.08;;;3.75;;
25069;SDS011;13064;48.162;11.536;2022-10-31T10:21:19;14.82;;;3.80;;
25069;SDS011;13064;48.162;11.536;2022-10-31T10:26:22;11.13;;;4.07;;
25069;SDS011;13064;48.162;11.536;2022-10-31T10:29:00;16.67;;;3.95;;
25069;SDS011;13064;48.162;11.536;2022-10-31T10:31:31;15.48;;;3.78;;
25069;SDS011;13064;48.162;11.536;2022-10-31T10:36:41;9.90;;;3.55;;
25069;SDS011;13064;48.162;11.536;2022-10-31T10:41:47;18.15;;;4.07;;
25069;SDS011;13064;48.162;11.536;2022-10-31T10:44:36;9.80;;;3.13;;
25069;SDS011;13064;48.162;11.536;2022-10-31T10:47:25;17.42;;;3.60;;
25069;SDS011;13064;48.162;11.536;2022-10-31T10:50:10;15.05;;;3.28;;
25069;SDS011;13064;48.162;11.536;2022-10-31T10:55:34;9.10;;;3.13;;
25069;SDS011;13064;48.162;11.536;2022-10-31T10:58:07;12.00;;;3.25;;
25069;SDS011;13064;48.162;11.536;2022-10-31T11:00:39;7.97;;;2.60;;
25069;SDS011;13064;48.162;11.536;2022-10-31T11:03:08;11.45;;;2.80;;
25069;SDS011;13064;48.162;11.536;2022-10-31T11:05:52;11.02;;;2.88;;
25069;SDS011;13064;48.162;11.536;2022-10-31T11:08:27;11.68;;;3.25;;
25069;SDS011;13064;48.162;11.536;2022-10-31T11:11:05;13.55;;;3.22;;
25069;SDS011;13064;48.162;11.536;2022-10-31T11:13:35;13.57;;;3.35;;
25069;SDS011;13064;48.162;11.536;2022-10-31T11:16:07;12.68;;;3.22;;
25069;SDS011;13064;48.162;11.536;2022-10-31T11:18:41;13.50;;;2.88;;
25069;SDS011;13064;48.162;11.536;2022-10-31T11:21:20;12.55;;;2.80;;
25069;SDS011;13064;48.162;11.536;2022-10-31T11:23:48;10.50;;;2.90;;
25069;SDS011;13064;48.162;11.536;2022-10-31T11:26:19;9.50;;;2.95;;
25069;SDS011;13064;48.162;11.536;2022-10-31T11:28:59;11.05;;;3.45;;
25069;SDS011;13064;48.162;11.536;2022-10-31T11:31:28;13.05;;;2.90;;
25069;SDS011;13064;48.162;11.536;2022-10-31T11:34:00;10.65;;;3.13;;
25069;SDS011;13064;48.162;11.536;2022-10-31T11:36:29;11.80;;;2.95;;
25069;SDS011;13064;48.162;11.536;2022-10-31T11:38:57;9.93;;;2.60;;
25069;SDS011;13064;48.162;11.536;2022-10-31T11:41:27;10.63;;;3.10;;
25069;SDS011;13064;48.162;11.536;2022-10-31T11:46:37;11.50;;;2.80;;
25069;SDS011;13064;48.162;11.536;2022-10-31T11:51:34;11.55;;;3.03;;
25069;SDS011;13064;48.162;11.536;2022-10-31T11:54:02;11.68;;;3.05;;
25069;SDS011;13064;48.162;11.536;2022-10-31T11:56:40;9.15;;;2.80;;
25069;SDS011;13064;48.162;11.536;2022-10-31T11:59:18;12.23;;;3.08;;
25069;SDS011;13064;48.162;11.536;2022-10-31T12:01:47;13.50;;;3.15;;
25069;SDS011;13064;48.162;11.536;2022-10-31T12:04:16;11.50;;;3.35;;
25069;SDS011;13064;48.162;11.536;2022-10-31T12:06:44;10.85;;;3.38;;
25069;SDS011;13064;48.162;11.536;2022-10-31T12:27:21;10.02;;;2.95;;
25069;SDS011;13064;48.162;11.536;2022-10-31T12:45:51;12.48;;;3.25;;
25069;SDS011;13064;48.162;11.536;2022-10-31T12:50:59;10.90;;;3.55;;
25069;SDS011;13064;48.162;11.536;2022-10-31T13:01:14;14.50;;;3.97;;
25069;SDS011;13064;48.162;11.536;2022-10-31T13:06:14;15.55;;;3.33;;
25069;SDS011;13064;48.162;11.536;2022-10-31T13:08:45;10.93;;;3.60;;
25069;SDS011;13064;48.162;11.536;2022-10-31T13:11:22;10.10;;;3.25;;
25069;SDS011;13064;48.162;11.536;2022-10-31T13:14:00;15.48;;;3.25;;
25069;SDS011;13064;48.162;11.536;2022-10-31T13:16:34;11.48;;;3.50;;
25069;SDS011;13064;48.162;11.536;2022-10-31T13:19:16;12.77;;;3.65;;
25069;SDS011;13064;48.162;11.536;2022-10-31T13:24:16;12.13;;;3.38;;
25069;SDS011;13064;48.162;11.536;2022-10-31T13:26:55;16.38;;;3.20;;
25069;SDS011;13064;48.162;11.536;2022-10-31T13:29:28;17.15;;;4.05;;
25069;SDS011;13064;48.162;11.536;2022-10-31T13:32:05;9.52;;;3.10;;
25069;SDS011;13064;48.162;11.536;2022-10-31T13:34:37;10.18;;;3.85;;
25069;SDS011;13064;48.162;11.536;2022-10-31T13:44:49;13.30;;;3.75;;
25069;SDS011;13064;48.162;11.536;2022-10-31T13:47:20;14.63;;;3.72;;
25069;SDS011;13064;48.162;11.536;2022-10-31T13:49:48;14.50;;;3.60;;
25069;SDS011;13064;48.162;11.536;2022-10-31T13:52:22;13.48;;;3.22;;
25069;SDS011;13064;48.162;11.536;2022-10-31T13:54:51;10.77;;;3.33;;
25069;SDS011;13064;48.162;11.536;2022-10-31T13:59:57;16.13;;;3.70;;
25069;SDS011;13064;48.162;11.536;2022-10-31T14:02:26;15.10;;;3.80;;
25069;SDS011;13064;48.162;11.536;2022-10-31T14:04:57;13.27;;;3.63;;
25069;SDS011;13064;48.162;11.536;2022-10-31T14:07:25;17.67;;;3.70;;
25069;SDS011;13064;48.162;11.536;2022-10-31T14:14:54;16.73;;;3.97;;
25069;SDS011;13064;48.162;11.536;2022-10-31T14:17:23;14.23;;;3.45;;
25069;SDS011;13064;48.162;11.536;2022-10-31T14:20:21;12.00;;;3.30;;
25069;SDS011;13064;48.162;11.536;2022-10-31T14:22:49;9.43;;;2.92;;
25069;SDS011;13064;48.162;11.536;2022-10-31T14:27:56;17.58;;;4.68;;
25069;SDS011;13064;48.162;11.536;2022-10-31T14:30:26;15.77;;;3.97;;
25069;SDS011;13064;48.162;11.536;2022-10-31T14:33:10;14.95;;;3.38;;
25069;SDS011;13064;48.162;11.536;2022-10-31T14:36:25;10.38;;;3.80;;
25069;SDS011;13064;48.162;11.536;2022-10-31T14:38:32;12.30;;;3.60;;
25069;SDS011;13064;48.162;11.536;2022-10-31T14:41:17;14.43;;;3.42;;
25069;SDS011;13064;48.162;11.536;2022-10-31T14:46:31;11.73;;;3.33;;
25069;SDS011;13064;48.162;11.536;2022-10-31T14:49:12;10.10;;;3.97;;
25069;SDS011;13064;48.162;11.536;2022-10-31T14:54:14;15.63;;;4.13;;
25069;SDS011;13064;48.162;11.536;2022-10-31T14:56:46;15.90;;;3.72;;
25069;SDS011;13064;48.162;11.536;2022-10-31T14:59:16;14.25;;;4.55;;
25069;SDS011;13064;48.162;11.536;2022-10-31T15:01:54;17.70;;;4.95;;
25069;SDS011;13064;48.162;11.536;2022-10-31T15:04:24;13.95;;;3.88;;
25069;SDS011;13064;48.162;11.536;2022-10-31T15:09:30;11.45;;;4.90;;
25069;SDS011;13064;48.162;11.536;2022-10-31T15:12:01;19.27;;;4.97;;
25069;SDS011;13064;48.162;11.536;2022-10-31T15:14:42;18.17;;;5.30;;
25069;SDS011;13064;48.162;11.536;2022-10-31T15:17:09;15.88;;;5.10;;
25069;SDS011;13064;48.162;11.536;2022-10-31T15:19:38;20.45;;;5.65;;
25069;SDS011;13064;48.162;11.536;2022-10-31T15:22:07;15.77;;;5.82;;
25069;SDS011;13064;48.162;11.536;2022-10-31T15:24:37;18.52;;;5.88;;
25069;SDS011;13064;48.162;11.536;2022-10-31T15:27:05;31.58;;;7.43;;
25069;SDS011;13064;48.162;11.536;2022-10-31T15:29:46;18.30;;;6.65;;
25069;SDS011;13064;48.162;11.536;2022-10-31T15:32:25;21.02;;;7.10;;
25069;SDS011;13064;48.162;11.536;2022-10-31T15:34:53;14.45;;;6.63;;
25069;SDS011;13064;48.162;11.536;2022-10-31T15:37:22;16.38;;;6.97;;
25069;SDS011;13064;48.162;11.536;2022-10-31T15:39:51;26.42;;;7.18;;
25069;SDS011;13064;48.162;11.536;2022-10-31T15:42:27;25.88;;;8.65;;
25069;SDS011;13064;48.162;11.536;2022-10-31T15:45:05;18.85;;;7.75;;
25069;SDS011;13064;48.162;11.536;2022-10-31T15:48:02;20.55;;;8.10;;
25069;SDS011;13064;48.162;11.536;2022-10-31T15:52:59;20.75;;;9.80;;
25069;SDS011;13064;48.162;11.536;2022-10-31T15:55:29;19.45;;;8.40;;
25069;SDS011;13064;48.162;11.536;2022-10-31T15:58:00;18.17;;;8.07;;
25069;SDS011;13064;48.162;11.536;2022-10-31T16:00:31;17.10;;;7.78;;
25069;SDS011;13064;48.162;11.536;2022-10-31T16:08:35;21.25;;;9.23;;
25069;SDS011;13064;48.162;11.536;2022-10-31T16:13:34;20.35;;;8.57;;
25069;SDS011;13064;48.162;11.536;2022-10-31T16:16:04;21.27;;;9.35;;
25069;SDS011;13064;48.162;11.536;2022-10-31T16:18:58;23.02;;;9.27;;
25069;SDS011;13064;48.162;11.536;2022-10-31T16:21:28;20.33;;;9.88;;
25069;SDS011;13064;48.162;11.536;2022-10-31T16:23:59;17.05;;;9.95;;
25069;SDS011;13064;48.162;11.536;2022-10-31T16:26:31;23.35;;;9.88;;
25069;SDS011;13064;48.162;11.536;2022-10-31T16:28:59;17.05;;;8.95;;
25069;SDS011;13064;48.162;11.536;2022-10-31T16:31:38;16.35;;;9.93;;
25069;SDS011;13064;48.162;11.536;2022-10-31T16:36:37;20.45;;;8.75;;
25069;SDS011;13064;48.162;11.536;2022-10-31T16:39:06;18.80;;;8.65;;
25069;SDS011;13064;48.162;11.536;2022-10-31T16:41:43;17.17;;;10.10;;
25069;SDS011;13064;48.162;11.536;2022-10-31T16:44:30;18.75;;;10.15;;
25069;SDS011;13064;48.162;11.536;2022-10-31T16:47:07;21.30;;;8.77;;
25069;SDS011;13064;48.162;11.536;2022-10-31T16:49:35;27.27;;;10.02;;
25069;SDS011;13064;48.162;11.536;2022-10-31T16:52:02;19.65;;;9.30;;
25069;SDS011;13064;48.162;11.536;2022-10-31T16:54:30;20.17;;;8.85;;
25069;SDS011;13064;48.162;11.536;2022-10-31T16:56:58;19.48;;;9.65;;
25069;SDS011;13064;48.162;11.536;2022-10-31T16:59:26;19.63;;;9.02;;
25069;SDS011;13064;48.162;11.536;2022-10-31T17:01:54;21.30;;;8.98;;
25069;SDS011;13064;48.162;11.536;2022-10-31T17:04:22;21.75;;;9.18;;
25069;SDS011;13064;48.162;11.536;2022-10-31T17:06:50;17.48;;;9.73;;
25069;SDS011;13064;48.162;11.536;2022-10-31T17:09:17;21.17;;;9.68;;
25069;SDS011;13064;48.162;11.536;2022-10-31T17:11:48;22.58;;;9.73;;
25069;SDS011;13064;48.162;11.536;2022-10-31T17:14:17;24.20;;;11.25;;
25069;SDS011;13064;48.162;11.536;2022-10-31T17:16:45;23.38;;;10.60;;
25069;SDS011;13064;48.162;11.536;2022-10-31T17:19:12;19.48;;;10.10;;
25069;SDS011;13064;48.162;11.536;2022-10-31T17:21:40;22.23;;;10.63;;
25069;SDS011;13064;48.162;11.536;2022-10-31T17:24:10;21.70;;;10.88;;